PWSweather.com
Personal Weather Stations
Station Observations
KNYSYRAC2
Fairmount Hills, Fairmount, NY 13219

Fairmount HillsFairmount, NY 13219

Lat: 43.03602, Lon: -76.247151

Elevation: 663

Station Type: Ambient Weather WS-2080

http://weather.cerchia.com

High Low Average
Temperature 85.4°F29.7°C 60.2°F15.7°C 70.9°F21.6°C
Dew Point 56.6°F13.7°C 47.2°F8.4°C 52.9°F11.6°C
Winds 5.5 mph 8.9 kmh 0.3 mph 0.5 kmh 3.0 mph SSW4.8 kmh SSW
Wind Gusts 12.3 mph19.8 kmh 2.0 mph3.2 kmh 8.0 mph12.9 kmh
Humidity 84% 28% 57%
Pressure 30.04 in1017.3 mb 29.97 in1014.9 mb -
Precipitation 0.00 in0.0 mm - -
Hour Temp Dew Point Humidity Winds Wind Gusts Pressure Precip Precip Rate Daily Precip Total
12:00 AM 64.5°F18.1°C 52.5°F11.4°C 65% 3.8 mph WSW6.1 kmh WSW 7.5 mph12.1 kmh 29.99 in1015.6 mb 0.00 in0.0 mm 0.00 in0.0 mm 0.00 in0.0 mm
12:15 AM 64.7°F18.2°C 51.8°F11.0°C 63% 4.1 mph SW6.6 kmh SW 8.7 mph14.0 kmh 29.99 in1015.6 mb 0.00 in0.0 mm 0.00 in0.0 mm 0.00 in0.0 mm
12:30 AM 65.0°F18.3°C 51.7°F10.9°C 62% 4.2 mph WSW6.8 kmh WSW 9.5 mph15.3 kmh 29.98 in1015.2 mb 0.00 in0.0 mm 0.00 in0.0 mm 0.00 in0.0 mm
12:45 AM 64.5°F18.1°C 51.6°F10.9°C 63% 3.8 mph SW6.1 kmh SW 7.5 mph12.1 kmh 29.99 in1015.6 mb 0.00 in0.0 mm 0.00 in0.0 mm 0.00 in0.0 mm
01:00 AM 64.3°F17.9°C 52.3°F11.3°C 65% 3.2 mph SW5.1 kmh SW 7.5 mph12.1 kmh 29.99 in1015.6 mb 0.00 in0.0 mm 0.00 in0.0 mm 0.00 in0.0 mm
01:15 AM 63.8°F17.7°C 52.6°F11.4°C 67% 3.5 mph WSW5.6 kmh WSW 9.5 mph15.3 kmh 29.99 in1015.6 mb 0.00 in0.0 mm 0.00 in0.0 mm 0.00 in0.0 mm
01:30 AM 63.4°F17.4°C 53.0°F11.7°C 69% 4.3 mph SW6.9 kmh SW 7.5 mph12.1 kmh 29.99 in1015.6 mb 0.00 in0.0 mm 0.00 in0.0 mm 0.00 in0.0 mm
01:45 AM 63.0°F17.2°C 53.9°F12.2°C 72% 3.9 mph WSW6.3 kmh WSW 8.7 mph14.0 kmh 29.99 in1015.6 mb 0.00 in0.0 mm 0.00 in0.0 mm 0.00 in0.0 mm
02:00 AM 62.9°F17.2°C 53.7°F12.1°C 72% 3.6 mph WSW5.8 kmh WSW 7.5 mph12.1 kmh 29.99 in1015.6 mb 0.00 in0.0 mm 0.00 in0.0 mm 0.00 in0.0 mm
02:15 AM 62.5°F16.9°C 54.1°F12.3°C 74% 3.6 mph WSW5.8 kmh WSW 9.5 mph15.3 kmh 30.00 in1015.9 mb 0.00 in0.0 mm 0.00 in0.0 mm 0.00 in0.0 mm
02:30 AM 62.5°F16.9°C 53.3°F11.8°C 72% 4.4 mph SW7.1 kmh SW 10.3 mph16.6 kmh 30.00 in1015.9 mb 0.00 in0.0 mm 0.00 in0.0 mm 0.00 in0.0 mm
02:45 AM 62.7°F17.1°C 53.5°F11.9°C 72% 4.1 mph SW6.6 kmh SW 12.3 mph19.8 kmh 30.00 in1015.9 mb 0.00 in0.0 mm 0.00 in0.0 mm 0.00 in0.0 mm
03:00 AM 62.5°F16.9°C 53.3°F11.8°C 72% 4.2 mph SSW6.8 kmh SSW 10.3 mph16.6 kmh 30.00 in1015.9 mb 0.00 in0.0 mm 0.00 in0.0 mm 0.00 in0.0 mm
03:15 AM 62.1°F16.7°C 53.8°F12.1°C 74% 4.8 mph SW7.7 kmh SW 11.5 mph18.5 kmh 30.00 in1015.9 mb 0.00 in0.0 mm 0.00 in0.0 mm 0.00 in0.0 mm
03:30 AM 62.0°F16.7°C 53.6°F12.0°C 74% 3.2 mph SW5.1 kmh SW 7.5 mph12.1 kmh 30.00 in1015.9 mb 0.00 in0.0 mm 0.00 in0.0 mm 0.00 in0.0 mm
03:45 AM 61.8°F16.6°C 53.8°F12.1°C 75% 4.0 mph SW6.4 kmh SW 8.7 mph14.0 kmh 30.01 in1016.3 mb 0.00 in0.0 mm 0.00 in0.0 mm 0.00 in0.0 mm
04:00 AM 61.6°F16.4°C 53.6°F12.0°C 75% 4.6 mph WSW7.4 kmh WSW 11.5 mph18.5 kmh 30.00 in1015.9 mb 0.00 in0.0 mm 0.00 in0.0 mm 0.00 in0.0 mm
04:15 AM 61.4°F16.3°C 54.1°F12.3°C 77% 5.0 mph SW8.0 kmh SW 12.3 mph19.8 kmh 30.01 in1016.3 mb 0.00 in0.0 mm 0.00 in0.0 mm 0.00 in0.0 mm
04:30 AM 61.4°F16.3°C 54.1°F12.3°C 77% 5.5 mph WSW8.9 kmh WSW 10.3 mph16.6 kmh 30.01 in1016.3 mb 0.00 in0.0 mm 0.00 in0.0 mm 0.00 in0.0 mm
04:45 AM 61.4°F16.3°C 53.8°F12.1°C 76% 5.3 mph SSW8.5 kmh SSW 12.3 mph19.8 kmh 30.01 in1016.3 mb 0.00 in0.0 mm 0.00 in0.0 mm 0.00 in0.0 mm
05:00 AM 61.4°F16.3°C 53.8°F12.1°C 76% 3.2 mph WSW5.1 kmh WSW 11.5 mph18.5 kmh 30.01 in1016.3 mb 0.00 in0.0 mm 0.00 in0.0 mm 0.00 in0.0 mm
05:15 AM 61.1°F16.2°C 53.4°F11.9°C 76% 2.8 mph SW4.5 kmh SW 7.5 mph12.1 kmh 30.01 in1016.3 mb 0.00 in0.0 mm 0.00 in0.0 mm 0.00 in0.0 mm
05:30 AM 61.1°F16.2°C 54.1°F12.3°C 78% 4.2 mph WSW6.8 kmh WSW 8.7 mph14.0 kmh 30.02 in1016.6 mb 0.00 in0.0 mm 0.00 in0.0 mm 0.00 in0.0 mm
05:45 AM 61.1°F16.2°C 54.5°F12.5°C 79% 2.6 mph SW4.2 kmh SW 7.5 mph12.1 kmh 30.02 in1016.6 mb 0.00 in0.0 mm 0.00 in0.0 mm 0.00 in0.0 mm
06:00 AM 60.9°F16.1°C 54.7°F12.6°C 80% 2.2 mph SSW3.5 kmh SSW 6.7 mph10.8 kmh 30.02 in1016.6 mb 0.00 in0.0 mm 0.00 in0.0 mm 0.00 in0.0 mm
06:15 AM 60.9°F16.1°C 55.0°F12.8°C 81% 0.7 mph SE1.1 kmh SE 2.8 mph4.5 kmh 30.02 in1016.6 mb 0.00 in0.0 mm 0.00 in0.0 mm 0.00 in0.0 mm
06:30 AM 60.2°F15.7°C 55.0°F12.8°C 83% 0.8 mph SE1.3 kmh SE 2.0 mph3.2 kmh 30.02 in1016.6 mb 0.00 in0.0 mm 0.00 in0.0 mm 0.00 in0.0 mm
06:45 AM 60.3°F15.7°C 55.5°F13.1°C 84% 1.1 mph SE1.8 kmh SE 2.8 mph4.5 kmh 30.02 in1016.6 mb 0.00 in0.0 mm 0.00 in0.0 mm 0.00 in0.0 mm
07:00 AM 60.9°F16.1°C 56.0°F13.3°C 84% 0.3 mph SE0.5 kmh SE 2.0 mph3.2 kmh 30.02 in1016.6 mb 0.00 in0.0 mm 0.00 in0.0 mm 0.00 in0.0 mm
07:15 AM 61.4°F16.3°C 56.2°F13.4°C 83% 0.7 mph SSE1.1 kmh SSE 3.9 mph6.3 kmh 30.02 in1016.6 mb 0.00 in0.0 mm 0.00 in0.0 mm 0.00 in0.0 mm
07:30 AM 62.3°F16.8°C 56.4°F13.6°C 81% 2.6 mph SW4.2 kmh SW 8.7 mph14.0 kmh 30.03 in1016.9 mb 0.00 in0.0 mm 0.00 in0.0 mm 0.00 in0.0 mm
07:45 AM 63.4°F17.4°C 56.4°F13.6°C 78% 3.4 mph SW5.5 kmh SW 12.3 mph19.8 kmh 30.03 in1016.9 mb 0.00 in0.0 mm 0.00 in0.0 mm 0.00 in0.0 mm
08:00 AM 64.3°F17.9°C 56.6°F13.7°C 76% 3.6 mph SSW5.8 kmh SSW 8.7 mph14.0 kmh 30.03 in1016.9 mb 0.00 in0.0 mm 0.00 in0.0 mm 0.00 in0.0 mm
08:15 AM 64.5°F18.1°C 56.4°F13.6°C 75% 2.3 mph SSW3.7 kmh SSW 6.7 mph10.8 kmh 30.03 in1016.9 mb 0.00 in0.0 mm 0.00 in0.0 mm 0.00 in0.0 mm
08:30 AM 65.2°F18.4°C 55.9°F13.3°C 72% 4.1 mph WSW6.6 kmh WSW 9.5 mph15.3 kmh 30.04 in1017.3 mb 0.00 in0.0 mm 0.00 in0.0 mm 0.00 in0.0 mm
08:45 AM 65.7°F18.7°C 56.1°F13.4°C 71% 5.0 mph SW8.0 kmh SW 9.5 mph15.3 kmh 30.03 in1016.9 mb 0.00 in0.0 mm 0.00 in0.0 mm 0.00 in0.0 mm
09:00 AM 66.3°F19.1°C 56.6°F13.7°C 71% 3.4 mph WSW5.5 kmh WSW 10.3 mph16.6 kmh 30.03 in1016.9 mb 0.00 in0.0 mm 0.00 in0.0 mm 0.00 in0.0 mm
09:15 AM 67.0°F19.4°C 56.1°F13.4°C 68% 3.5 mph WSW5.6 kmh WSW 8.7 mph14.0 kmh 30.04 in1017.3 mb 0.00 in0.0 mm 0.00 in0.0 mm 0.00 in0.0 mm
09:30 AM 67.7°F19.8°C 55.5°F13.1°C 65% 2.9 mph W4.7 kmh W 6.7 mph10.8 kmh 30.04 in1017.3 mb 0.00 in0.0 mm 0.00 in0.0 mm 0.00 in0.0 mm
09:45 AM 68.3°F20.2°C 55.2°F12.9°C 63% 2.2 mph NW3.5 kmh NW 7.5 mph12.1 kmh 30.04 in1017.3 mb 0.00 in0.0 mm 0.00 in0.0 mm 0.00 in0.0 mm
10:00 AM 68.8°F20.4°C 54.3°F12.4°C 60% 2.7 mph SW4.3 kmh SW 7.5 mph12.1 kmh 30.04 in1017.3 mb 0.00 in0.0 mm 0.00 in0.0 mm 0.00 in0.0 mm
10:15 AM 69.7°F20.9°C 53.8°F12.1°C 57% 3.5 mph WSW5.6 kmh WSW 10.3 mph16.6 kmh 30.04 in1017.3 mb 0.00 in0.0 mm 0.00 in0.0 mm 0.00 in0.0 mm
10:30 AM 70.2°F21.2°C 54.3°F12.4°C 57% 3.5 mph NW5.6 kmh NW 8.7 mph14.0 kmh 30.04 in1017.3 mb 0.00 in0.0 mm 0.00 in0.0 mm 0.00 in0.0 mm
10:45 AM 70.8°F21.6°C 52.3°F11.3°C 52% 3.3 mph NNW5.3 kmh NNW 8.7 mph14.0 kmh 30.04 in1017.3 mb 0.00 in0.0 mm 0.00 in0.0 mm 0.00 in0.0 mm
11:00 AM 71.3°F21.8°C 52.3°F11.3°C 51% 4.1 mph WNW6.6 kmh WNW 10.3 mph16.6 kmh 30.04 in1017.3 mb 0.00 in0.0 mm 0.00 in0.0 mm 0.00 in0.0 mm
11:15 AM 72.4°F22.4°C 52.7°F11.5°C 50% 3.1 mph W5.0 kmh W 6.7 mph10.8 kmh 30.04 in1017.3 mb 0.00 in0.0 mm 0.00 in0.0 mm 0.00 in0.0 mm
11:30 AM 73.1°F22.8°C 53.9°F12.2°C 51% 3.3 mph NW5.3 kmh NW 8.7 mph14.0 kmh 30.04 in1017.3 mb 0.00 in0.0 mm 0.00 in0.0 mm 0.00 in0.0 mm
11:45 AM 73.5°F23.1°C 53.7°F12.1°C 50% 3.4 mph NE5.5 kmh NE 10.3 mph16.6 kmh 30.04 in1017.3 mb 0.00 in0.0 mm 0.00 in0.0 mm 0.00 in0.0 mm
12:00 PM 74.0°F23.3°C 51.9°F11.1°C 46% 4.2 mph W6.8 kmh W 11.5 mph18.5 kmh 30.04 in1017.3 mb 0.00 in0.0 mm 0.00 in0.0 mm 0.00 in0.0 mm
12:15 PM 74.6°F23.7°C 51.8°F11.0°C 45% 4.3 mph W6.9 kmh W 12.3 mph19.8 kmh 30.04 in1017.3 mb 0.00 in0.0 mm 0.00 in0.0 mm 0.00 in0.0 mm
12:30 PM 74.6°F23.7°C 51.8°F11.0°C 45% 3.6 mph W5.8 kmh W 12.3 mph19.8 kmh 30.03 in1016.9 mb 0.00 in0.0 mm 0.00 in0.0 mm 0.00 in0.0 mm
12:45 PM 74.7°F23.7°C 51.4°F10.8°C 44% 2.6 mph W4.2 kmh W 10.3 mph16.6 kmh 30.02 in1016.6 mb 0.00 in0.0 mm 0.00 in0.0 mm 0.00 in0.0 mm
01:00 PM 75.1°F23.9°C 51.1°F10.6°C 43% 4.5 mph WNW7.2 kmh WNW 12.3 mph19.8 kmh 30.02 in1016.6 mb 0.00 in0.0 mm 0.00 in0.0 mm 0.00 in0.0 mm
01:15 PM 76.4°F24.7°C 51.6°F10.9°C 42% 3.4 mph WSW5.5 kmh WSW 12.3 mph19.8 kmh 30.02 in1016.6 mb 0.00 in0.0 mm 0.00 in0.0 mm 0.00 in0.0 mm
01:30 PM 76.9°F24.9°C 51.4°F10.8°C 41% 4.0 mph NNE6.4 kmh NNE 10.3 mph16.6 kmh 30.02 in1016.6 mb 0.00 in0.0 mm 0.00 in0.0 mm 0.00 in0.0 mm
01:45 PM 79.1°F26.2°C 48.3°F9.1°C 34% 4.2 mph WNW6.8 kmh WNW 9.5 mph15.3 kmh 30.01 in1016.3 mb 0.00 in0.0 mm 0.00 in0.0 mm 0.00 in0.0 mm
02:00 PM 81.6°F27.6°C 52.0°F11.1°C 36% 2.4 mph WNW3.9 kmh WNW 8.7 mph14.0 kmh 30.02 in1016.6 mb 0.00 in0.0 mm 0.00 in0.0 mm 0.00 in0.0 mm
02:15 PM 81.8°F27.7°C 51.4°F10.8°C 35% 3.8 mph WNW6.1 kmh WNW 8.7 mph14.0 kmh 30.01 in1016.3 mb 0.00 in0.0 mm 0.00 in0.0 mm 0.00 in0.0 mm
02:30 PM 82.5°F28.1°C 52.1°F11.2°C 35% 1.1 mph N1.8 kmh N 5.6 mph9.0 kmh 30.01 in1016.3 mb 0.00 in0.0 mm 0.00 in0.0 mm 0.00 in0.0 mm
02:45 PM 82.1°F27.8°C 51.0°F10.6°C 34% 3.9 mph N6.3 kmh N 11.5 mph18.5 kmh 30.00 in1015.9 mb 0.00 in0.0 mm 0.00 in0.0 mm 0.00 in0.0 mm
03:00 PM 82.3°F27.9°C 51.1°F10.6°C 34% 4.7 mph NW7.6 kmh NW 10.3 mph16.6 kmh 30.00 in1015.9 mb 0.00 in0.0 mm 0.00 in0.0 mm 0.00 in0.0 mm
03:15 PM 83.6°F28.7°C 51.4°F10.8°C 33% 2.5 mph WNW4.0 kmh WNW 8.7 mph14.0 kmh 30.00 in1015.9 mb 0.00 in0.0 mm 0.00 in0.0 mm 0.00 in0.0 mm
03:30 PM 82.8°F28.2°C 51.6°F10.9°C 34% 3.1 mph NNW5.0 kmh NNW 8.7 mph14.0 kmh 29.99 in1015.6 mb 0.00 in0.0 mm 0.00 in0.0 mm 0.00 in0.0 mm
03:45 PM 84.5°F29.2°C 51.4°F10.8°C 32% 2.4 mph WSW3.9 kmh WSW 6.7 mph10.8 kmh 29.99 in1015.6 mb 0.00 in0.0 mm 0.00 in0.0 mm 0.00 in0.0 mm
04:00 PM 85.2°F29.6°C 50.2°F10.1°C 30% 1.1 mph NE1.8 kmh NE 4.8 mph7.7 kmh 29.99 in1015.6 mb 0.00 in0.0 mm 0.00 in0.0 mm 0.00 in0.0 mm
04:15 PM 85.4°F29.7°C 48.5°F9.2°C 28% 1.2 mph ENE1.9 kmh ENE 6.7 mph10.8 kmh 29.99 in1015.6 mb 0.00 in0.0 mm 0.00 in0.0 mm 0.00 in0.0 mm
04:30 PM 83.4°F28.6°C 48.7°F9.3°C 30% 2.2 mph NE3.5 kmh NE 6.7 mph10.8 kmh 29.98 in1015.2 mb 0.00 in0.0 mm 0.00 in0.0 mm 0.00 in0.0 mm
04:45 PM 85.4°F29.7°C 48.5°F9.2°C 28% 2.9 mph WSW4.7 kmh WSW 6.7 mph10.8 kmh 29.98 in1015.2 mb 0.00 in0.0 mm 0.00 in0.0 mm 0.00 in0.0 mm
05:00 PM 85.4°F29.7°C 48.5°F9.2°C 28% 1.8 mph NW2.9 kmh NW 6.7 mph10.8 kmh 29.98 in1015.2 mb 0.00 in0.0 mm 0.00 in0.0 mm 0.00 in0.0 mm
05:15 PM 84.3°F29.1°C 48.6°F9.2°C 29% 1.4 mph NNW2.3 kmh NNW 5.6 mph9.0 kmh 29.98 in1015.2 mb 0.00 in0.0 mm 0.00 in0.0 mm 0.00 in0.0 mm
05:30 PM 83.7°F28.7°C 47.2°F8.4°C 28% 1.3 mph WNW2.1 kmh WNW 7.5 mph12.1 kmh 29.98 in1015.2 mb 0.00 in0.0 mm 0.00 in0.0 mm 0.00 in0.0 mm
05:45 PM 80.5°F26.9°C 49.5°F9.7°C 34% 1.1 mph NE1.8 kmh NE 3.9 mph6.3 kmh 29.97 in1014.9 mb 0.00 in0.0 mm 0.00 in0.0 mm 0.00 in0.0 mm
06:00 PM 79.2°F26.2°C 51.4°F10.8°C 38% 2.0 mph NE3.2 kmh NE 6.7 mph10.8 kmh 29.97 in1014.9 mb 0.00 in0.0 mm 0.00 in0.0 mm 0.00 in0.0 mm
06:15 PM 78.5°F25.8°C 50.8°F10.4°C 38% 2.5 mph NE4.0 kmh NE 9.5 mph15.3 kmh 29.97 in1014.9 mb 0.00 in0.0 mm 0.00 in0.0 mm 0.00 in0.0 mm
06:30 PM 77.6°F25.3°C 52.7°F11.5°C 42% 2.0 mph NE3.2 kmh NE 5.6 mph9.0 kmh 29.98 in1015.2 mb 0.00 in0.0 mm 0.00 in0.0 mm 0.00 in0.0 mm
06:45 PM 76.4°F24.7°C 51.6°F10.9°C 42% 2.5 mph NE4.0 kmh NE 6.7 mph10.8 kmh 29.97 in1014.9 mb 0.00 in0.0 mm 0.00 in0.0 mm 0.00 in0.0 mm
07:00 PM 76.0°F24.4°C 51.9°F11.1°C 43% 1.9 mph NE3.1 kmh NE 6.7 mph10.8 kmh 29.98 in1015.2 mb 0.00 in0.0 mm 0.00 in0.0 mm 0.00 in0.0 mm
07:15 PM 75.5°F24.2°C 52.0°F11.1°C 44% 2.3 mph NE3.7 kmh NE 6.7 mph10.8 kmh 29.98 in1015.2 mb 0.00 in0.0 mm 0.00 in0.0 mm 0.00 in0.0 mm
07:30 PM 76.0°F24.4°C 51.2°F10.7°C 42% 1.8 mph NE2.9 kmh NE 5.6 mph9.0 kmh 29.98 in1015.2 mb 0.00 in0.0 mm 0.00 in0.0 mm 0.00 in0.0 mm
07:45 PM 76.0°F24.4°C 51.2°F10.7°C 42% 2.2 mph NE3.5 kmh NE 8.7 mph14.0 kmh 29.98 in1015.2 mb 0.00 in0.0 mm 0.00 in0.0 mm 0.00 in0.0 mm
08:00 PM 75.1°F23.9°C 51.1°F10.6°C 43% 0.4 mph NE0.6 kmh NE 3.9 mph6.3 kmh 29.98 in1015.2 mb 0.00 in0.0 mm 0.00 in0.0 mm 0.00 in0.0 mm
08:15 PM 74.7°F23.7°C 50.7°F10.4°C 43% 0.5 mph NE0.8 kmh NE 3.9 mph6.3 kmh 29.98 in1015.2 mb 0.00 in0.0 mm 0.00 in0.0 mm 0.00 in0.0 mm
08:30 PM 74.2°F23.4°C 50.9°F10.5°C 44% Calm Calm -- 29.98 in1015.2 mb 0.00 in0.0 mm 0.00 in0.0 mm 0.00 in0.0 mm
08:45 PM 73.5°F23.1°C 51.4°F10.8°C 46% Calm Calm -- 29.99 in1015.6 mb 0.00 in0.0 mm 0.00 in0.0 mm 0.00 in0.0 mm
09:00 PM 72.0°F22.2°C 51.8°F11.0°C 49% Calm Calm -- 29.99 in1015.6 mb 0.00 in0.0 mm 0.00 in0.0 mm 0.00 in0.0 mm
09:15 PM 70.4°F21.3°C 51.9°F11.1°C 52% Calm Calm -- 29.99 in1015.6 mb 0.00 in0.0 mm 0.00 in0.0 mm 0.00 in0.0 mm
09:30 PM 69.0°F20.6°C 51.6°F10.9°C 54% Calm Calm -- 30.00 in1015.9 mb 0.00 in0.0 mm 0.00 in0.0 mm 0.00 in0.0 mm
09:45 PM 68.1°F20.1°C 52.3°F11.3°C 57% Calm Calm -- 30.00 in1015.9 mb 0.00 in0.0 mm 0.00 in0.0 mm 0.00 in0.0 mm
10:00 PM 67.9°F19.9°C 53.0°F11.7°C 59% Calm Calm -- 30.00 in1015.9 mb 0.00 in0.0 mm 0.00 in0.0 mm 0.00 in0.0 mm
10:15 PM 67.2°F19.6°C 53.3°F11.8°C 61% Calm Calm -- 30.00 in1015.9 mb 0.00 in0.0 mm 0.00 in0.0 mm 0.00 in0.0 mm
10:30 PM 66.6°F19.2°C 54.1°F12.3°C 64% Calm Calm -- 30.00 in1015.9 mb 0.00 in0.0 mm 0.00 in0.0 mm 0.00 in0.0 mm
10:45 PM 66.1°F18.9°C 54.0°F12.2°C 65% Calm Calm -- 30.00 in1015.9 mb 0.00 in0.0 mm 0.00 in0.0 mm 0.00 in0.0 mm
11:00 PM 64.7°F18.2°C 53.4°F11.9°C 67% 0.3 mph S0.5 kmh S 2.8 mph4.5 kmh 29.99 in1015.6 mb 0.00 in0.0 mm 0.00 in0.0 mm 0.00 in0.0 mm
11:15 PM 64.5°F18.1°C 53.7°F12.1°C 68% 0.5 mph SE0.8 kmh SE 2.0 mph3.2 kmh 29.99 in1015.6 mb 0.00 in0.0 mm 0.00 in0.0 mm 0.00 in0.0 mm
11:30 PM 63.8°F17.7°C 53.4°F11.9°C 69% Calm Calm -- 29.98 in1015.2 mb 0.00 in0.0 mm 0.00 in0.0 mm 0.00 in0.0 mm
11:45 PM 63.2°F17.3°C 53.7°F12.1°C 71% Calm Calm -- 29.98 in1015.2 mb 0.00 in0.0 mm 0.00 in0.0 mm 0.00 in0.0 mm